createdAt,value
2018-12-27T04:29:14.046Z,1.70
2018-12-27T04:31:55.778Z,1.50
2018-12-27T04:34:37.512Z,1.50
2018-12-27T04:37:19.656Z,1.50
2018-12-27T04:40:01.394Z,1.60
2018-12-27T04:42:43.603Z,1.30
2018-12-27T04:45:25.373Z,1.00
2018-12-27T04:48:06.997Z,1.10
2018-12-27T04:50:48.755Z,1.40
2018-12-27T04:53:30.732Z,1.40
2018-12-27T04:56:01.230Z,1.40
2018-12-27T04:58:43.698Z,1.50
2018-12-27T05:01:25.725Z,1.60
2018-12-27T05:04:07.974Z,1.70
2018-12-27T05:06:49.947Z,1.60
2018-12-27T05:09:30.293Z,1.60
2018-12-27T05:12:12.631Z,1.70
2018-12-27T05:14:54.554Z,1.80
2018-12-27T05:17:36.276Z,1.70
2018-12-27T05:20:17.963Z,1.60
2018-12-27T05:22:48.229Z,1.60
2018-12-27T05:25:30.630Z,1.50
2018-12-27T05:28:13.092Z,1.60
2018-12-27T05:30:54.936Z,1.40
2018-12-27T05:33:38.138Z,1.50
2018-12-27T05:36:21.053Z,1.60
2018-12-27T05:39:02.629Z,1.40
2018-12-27T05:41:44.482Z,1.70
2018-12-27T05:44:26.252Z,1.90
2018-12-27T05:47:09.428Z,1.80
2018-12-27T05:49:51.797Z,1.80
2018-12-27T05:52:22.092Z,1.90
2018-12-27T05:55:11.456Z,1.80
2018-12-27T05:57:53.009Z,1.90
2018-12-27T06:00:34.959Z,1.80
2018-12-27T06:03:17.077Z,1.10
2018-12-27T06:05:59.179Z,1.10
2018-12-27T06:08:41.229Z,1.10
2018-12-27T06:11:23.615Z,1.20
2018-12-27T06:14:05.746Z,1.50
2018-12-27T06:16:47.854Z,1.20
2018-12-27T06:19:30.104Z,0.80
2018-12-27T06:22:12.293Z,0.50
2018-12-27T06:24:56.136Z,0.70
2018-12-27T06:27:38.103Z,1.10
2018-12-27T06:30:20.382Z,1.10
2018-12-27T06:33:02.524Z,0.90
2018-12-27T06:35:44.858Z,0.80
2018-12-27T06:38:27.162Z,0.80
2018-12-27T06:41:08.168Z,0.90
2018-12-27T06:43:49.869Z,0.70
2018-12-27T06:46:32.034Z,1.00
2018-12-27T06:49:12.393Z,1.00
2018-12-27T06:51:53.093Z,1.00
2018-12-27T06:54:35.052Z,1.20
2018-12-27T06:57:17.277Z,0.70
2018-12-27T06:59:59.148Z,1.00
2018-12-27T07:02:39.606Z,0.90
2018-12-27T07:05:09.879Z,0.70
2018-12-27T07:07:52.051Z,0.70
2018-12-27T07:10:34.281Z,0.80
2018-12-27T07:13:16.452Z,0.50
2018-12-27T07:15:58.336Z,0.70
2018-12-27T07:18:28.646Z,1.10
2018-12-27T07:21:18.089Z,1.20
2018-12-27T07:24:00.384Z,1.10
2018-12-27T07:26:42.469Z,1.10
2018-12-27T07:29:24.705Z,1.30
2018-12-27T07:32:06.966Z,1.50
2018-12-27T07:34:56.246Z,1.50
2018-12-27T07:37:33.511Z,1.30
2018-12-27T07:40:05.446Z,1.60
2018-12-27T07:42:48.568Z,1.70
2018-12-27T07:45:30.874Z,1.60
2018-12-27T07:48:13.845Z,1.60
2018-12-27T07:50:44.173Z,1.20
2018-12-27T07:53:15.341Z,1.10
2018-12-27T07:56:05.607Z,1.10
2018-12-27T07:58:47.429Z,0.90
2018-12-27T08:01:29.976Z,0.70
2018-12-27T08:04:12.726Z,0.70
2018-12-27T08:06:54.886Z,1.00
2018-12-27T08:09:37.056Z,1.00
2018-12-27T08:12:19.001Z,1.30
2018-12-27T08:14:49.393Z,1.50
2018-12-27T08:17:38.742Z,1.60
2018-12-27T08:20:20.640Z,1.30
2018-12-27T08:23:02.762Z,1.70
2018-12-27T08:25:44.953Z,1.70
2018-12-27T08:28:26.899Z,1.70
2018-12-27T08:31:09.228Z,1.70
2018-12-27T08:33:51.678Z,1.30
2018-12-27T08:36:34.441Z,1.00
2018-12-27T08:39:16.402Z,0.90
2018-12-27T08:41:58.290Z,0.90
2018-12-27T08:44:42.322Z,0.70
2018-12-27T08:47:23.936Z,0.80
2018-12-27T08:50:05.917Z,1.20
2018-12-27T08:52:47.579Z,1.30
2018-12-27T08:55:29.610Z,1.30
2018-12-27T08:58:11.774Z,1.30
2018-12-27T09:00:53.570Z,1.20
2018-12-27T09:03:35.850Z,1.40
2018-12-27T09:06:18.178Z,1.70
2018-12-27T09:09:00.369Z,1.70
2018-12-27T09:11:30.698Z,1.80
2018-12-27T09:14:01.165Z,1.60
2018-12-27T09:16:43.830Z,1.40
2018-12-27T09:19:26.298Z,1.70
2018-12-27T09:22:08.050Z,1.50
2018-12-27T09:24:50.228Z,1.70
2018-12-27T09:27:32.195Z,2.00
2018-12-27T09:30:14.472Z,2.10
2018-12-27T09:32:56.625Z,2.10
2018-12-27T09:35:38.984Z,2.10
2018-12-27T09:38:21.434Z,1.60
2018-12-27T09:41:03.642Z,1.70
2018-12-27T09:43:45.549Z,1.80
2018-12-27T09:46:27.434Z,2.00
2018-12-27T09:48:58.692Z,1.40
2018-12-27T09:51:29.486Z,1.50
2018-12-27T09:54:19.486Z,1.90
2018-12-27T09:57:01.878Z,2.00
2018-12-27T09:59:43.936Z,1.90
2018-12-27T10:02:25.993Z,1.50
2018-12-27T10:05:08.096Z,1.70
2018-12-27T10:07:50.041Z,2.00
2018-12-27T10:10:32.224Z,2.10
2018-12-27T10:13:13.881Z,2.50
2018-12-27T10:15:56.395Z,2.30
2018-12-27T10:18:38.743Z,2.30
2018-12-27T10:21:21.171Z,2.10
2018-12-27T10:24:04.854Z,1.60
2018-12-27T10:26:47.073Z,2.00
2018-12-27T10:29:29.740Z,2.40
2018-12-27T10:32:12.120Z,2.60
2018-12-27T10:34:54.078Z,2.60
2018-12-27T10:37:37.898Z,2.70
2018-12-27T10:40:20.844Z,2.40
2018-12-27T10:43:03.498Z,2.60
2018-12-27T10:45:45.546Z,2.50
2018-12-27T10:48:27.843Z,2.60
2018-12-27T10:51:09.654Z,2.70
2018-12-27T10:53:51.223Z,2.70
2018-12-27T10:56:33.634Z,2.50
2018-12-27T10:59:16.208Z,2.10
2018-12-27T11:01:58.698Z,1.80
2018-12-27T11:04:40.864Z,2.00
2018-12-27T11:07:22.971Z,1.80
2018-12-27T11:10:04.946Z,1.90
2018-12-27T11:12:49.069Z,2.20
2018-12-27T11:15:31.054Z,2.20
2018-12-27T11:18:13.226Z,2.30
2018-12-27T11:20:55.141Z,2.20
2018-12-27T11:23:37.734Z,1.80
2018-12-27T11:26:19.928Z,1.80
2018-12-27T11:29:01.890Z,1.50
2018-12-27T11:31:32.570Z,1.40
2018-12-27T11:34:14.266Z,1.30
2018-12-27T11:36:56.497Z,1.40
2018-12-27T11:39:38.282Z,1.60
2018-12-27T11:42:09.733Z,1.50
2018-12-27T11:44:51.677Z,1.70
2018-12-27T11:47:33.944Z,2.10
2018-12-27T11:50:04.439Z,2.10
2018-12-27T11:52:53.778Z,1.90
2018-12-27T11:55:35.919Z,1.70
2018-12-27T11:58:18.072Z,1.50
2018-12-27T12:01:00.319Z,1.60
2018-12-27T12:03:42.250Z,1.40
2018-12-27T12:06:24.582Z,1.20
2018-12-27T12:09:07.087Z,1.30
2018-12-27T12:11:49.035Z,1.10
2018-12-27T12:14:32.022Z,1.10
2018-12-27T12:17:14.078Z,1.10
2018-12-27T12:19:56.204Z,1.30
2018-12-27T12:22:40.858Z,1.60
2018-12-27T12:25:22.766Z,1.40
2018-12-27T12:28:05.026Z,1.30
2018-12-27T12:30:47.243Z,1.40
2018-12-27T12:33:29.451Z,1.50
2018-12-27T12:36:11.352Z,1.40
2018-12-27T12:38:53.588Z,1.40
2018-12-27T12:41:35.454Z,1.50
2018-12-27T12:44:16.108Z,1.80
2018-12-27T12:46:58.273Z,1.80
2018-12-27T12:49:40.493Z,2.10
2018-12-27T12:52:22.611Z,1.80
2018-12-27T12:55:04.721Z,1.60
2018-12-27T12:57:46.396Z,1.50
2018-12-27T13:00:28.674Z,1.90
2018-12-27T13:03:10.423Z,2.00
2018-12-27T13:05:53.124Z,2.00
2018-12-27T13:08:35.249Z,1.90
2018-12-27T13:11:16.831Z,1.30
2018-12-27T13:13:58.965Z,1.90
2018-12-27T13:16:41.836Z,2.00
2018-12-27T13:19:26.537Z,2.00
2018-12-27T13:22:08.958Z,2.30
2018-12-27T13:24:50.797Z,1.80
2018-12-27T13:27:32.405Z,2.10
2018-12-27T13:30:14.652Z,2.30
2018-12-27T13:32:56.713Z,2.00
2018-12-27T13:35:38.718Z,1.50
2018-12-27T13:38:21.147Z,1.30
2018-12-27T13:41:03.565Z,1.50
2018-12-27T13:43:46.670Z,1.60
2018-12-27T13:46:29.458Z,1.30
2018-12-27T13:49:12.655Z,1.50
2018-12-27T13:51:54.534Z,1.40
2018-12-27T13:54:36.686Z,1.60
2018-12-27T13:57:07.210Z,1.70
2018-12-27T13:59:49.256Z,1.60
2018-12-27T14:02:30.678Z,1.30
2018-12-27T14:05:12.783Z,1.60
2018-12-27T14:07:55.307Z,1.60
2018-12-27T14:10:38.122Z,2.10
2018-12-27T14:13:20.890Z,1.90
2018-12-27T14:16:02.915Z,1.80
2018-12-27T14:18:47.260Z,2.00
2018-12-27T14:21:29.142Z,2.20
2018-12-27T14:24:12.917Z,2.10
2018-12-27T14:26:56.665Z,1.90
2018-12-27T14:29:40.155Z,1.60
2018-12-27T14:32:22.136Z,1.70
2018-12-27T14:35:04.068Z,1.40
2018-12-27T14:37:45.922Z,1.30
2018-12-27T14:40:27.632Z,1.40
2018-12-27T14:43:10.000Z,1.60
2018-12-27T14:45:52.555Z,1.70
2018-12-27T14:48:34.487Z,1.90
2018-12-27T14:51:18.284Z,1.90
2018-12-27T14:54:00.248Z,2.10
2018-12-27T14:56:42.381Z,2.20
2018-12-27T14:59:24.215Z,2.50
2018-12-27T15:02:06.026Z,2.40
2018-12-27T15:04:47.951Z,2.60
2018-12-27T15:07:30.522Z,2.40
2018-12-27T15:10:13.102Z,2.20
2018-12-27T15:12:44.473Z,2.30
2018-12-27T15:15:34.141Z,2.20
2018-12-27T15:18:16.581Z,2.00
2018-12-27T15:20:59.559Z,2.10
2018-12-27T15:23:43.141Z,2.00
2018-12-27T15:26:25.693Z,2.10
2018-12-27T15:29:10.316Z,2.10
2018-12-27T15:31:53.534Z,2.20
2018-12-27T15:34:36.708Z,2.00
2018-12-27T15:37:21.946Z,1.70
2018-12-27T15:40:05.663Z,1.50
2018-12-27T15:42:48.548Z,1.60
2018-12-27T15:45:30.829Z,1.70
2018-12-27T15:48:14.889Z,1.80
2018-12-27T15:50:58.703Z,1.80
2018-12-27T15:53:41.892Z,1.80
2018-12-27T15:56:26.425Z,1.60
2018-12-27T15:59:09.227Z,1.60
2018-12-27T16:01:53.483Z,1.50
2018-12-27T16:04:35.959Z,1.40
2018-12-27T16:07:19.661Z,1.50
2018-12-27T16:10:01.824Z,1.70
2018-12-27T16:12:43.529Z,1.80
2018-12-27T16:15:26.863Z,2.00
2018-12-27T16:18:10.432Z,2.10
2018-12-27T16:20:53.472Z,1.80
2018-12-27T16:23:37.591Z,1.90
2018-12-27T16:26:22.567Z,2.00
2018-12-27T16:29:05.599Z,2.10
2018-12-27T16:31:48.660Z,2.20
2018-12-27T16:34:30.992Z,2.20
2018-12-27T16:37:14.531Z,2.10
2018-12-27T16:39:58.043Z,2.20
2018-12-27T16:42:41.253Z,2.40
2018-12-27T16:45:23.895Z,2.50
2018-12-27T16:48:06.086Z,2.50
2018-12-27T16:50:47.800Z,2.20
2018-12-27T16:53:30.032Z,2.20
2018-12-27T16:56:12.472Z,2.20
2018-12-27T16:58:56.497Z,2.10
2018-12-27T17:01:38.838Z,2.00
2018-12-27T17:04:21.915Z,1.90
2018-12-27T17:07:05.746Z,1.90
2018-12-27T17:09:51.048Z,1.90
2018-12-27T17:12:33.355Z,1.90
2018-12-27T17:15:15.307Z,1.90
2018-12-27T17:17:57.886Z,2.00
2018-12-27T17:20:40.381Z,2.30
2018-12-27T17:23:22.026Z,2.40
2018-12-27T17:26:05.215Z,2.50
2018-12-27T17:28:48.023Z,2.50
2018-12-27T17:31:21.162Z,2.70
2018-12-27T17:34:06.444Z,2.70
2018-12-27T17:36:49.215Z,2.90
2018-12-27T17:39:34.007Z,2.60
2018-12-27T17:42:22.311Z,2.50
2018-12-27T17:45:26.615Z,2.50
2018-12-27T17:48:11.288Z,2.40
2018-12-27T17:50:52.911Z,2.50
2018-12-27T17:53:37.532Z,2.30
2018-12-27T17:56:20.225Z,2.00
2018-12-27T17:59:03.058Z,1.70
2018-12-27T18:01:45.401Z,1.90
2018-12-27T18:04:29.069Z,1.90
2018-12-27T18:07:11.942Z,2.00
2018-12-27T18:09:54.055Z,1.90
2018-12-27T18:12:37.509Z,2.10
2018-12-27T18:15:19.724Z,1.80
2018-12-27T18:18:01.963Z,2.00
2018-12-27T18:20:45.323Z,2.10
2018-12-27T18:23:28.551Z,2.00
2018-12-27T18:26:10.421Z,2.10
2018-12-27T18:28:52.403Z,1.90
2018-12-27T18:31:37.310Z,2.10
2018-12-27T18:34:20.440Z,2.20
2018-12-27T18:37:03.617Z,2.30
2018-12-27T18:39:48.726Z,2.30
2018-12-27T18:42:32.324Z,2.40
2018-12-27T18:45:14.893Z,2.70
2018-12-27T18:47:57.144Z,2.50
2018-12-27T18:50:40.210Z,2.50
2018-12-27T18:53:23.212Z,2.60
2018-12-27T18:56:06.012Z,2.70
2018-12-27T18:58:48.175Z,2.20
2018-12-27T19:04:42.445Z,2.10
2018-12-27T19:07:26.709Z,2.00
2018-12-27T19:10:10.043Z,1.80
2018-12-27T19:12:52.991Z,1.60
2018-12-27T19:15:35.039Z,1.70
2018-12-27T19:18:17.644Z,1.80
2018-12-27T19:21:00.733Z,1.90
2018-12-27T19:23:42.990Z,2.20
2018-12-27T19:26:25.297Z,2.10
2018-12-27T19:29:07.039Z,2.00
2018-12-27T19:31:49.764Z,2.20
2018-12-27T19:34:32.315Z,2.10
2018-12-27T19:37:14.146Z,2.00
2018-12-27T19:39:58.718Z,1.90
2018-12-27T19:42:41.276Z,1.70
2018-12-27T19:45:24.032Z,1.70
2018-12-27T19:48:08.254Z,1.80
2018-12-27T19:50:50.711Z,2.10
2018-12-27T19:53:35.073Z,2.00
2018-12-27T19:56:17.560Z,2.00
2018-12-27T19:58:59.480Z,2.20
2018-12-27T20:01:42.990Z,2.40
2018-12-27T20:04:24.864Z,2.40
2018-12-27T20:07:06.850Z,2.40
2018-12-27T20:09:49.060Z,2.40
2018-12-27T20:12:19.368Z,2.40
2018-12-27T20:15:08.753Z,2.50
2018-12-27T20:17:50.981Z,2.40
2018-12-27T20:20:21.361Z,2.60
2018-12-27T20:22:51.674Z,2.60
2018-12-27T20:25:41.436Z,2.40
2018-12-27T20:28:25.675Z,2.40
2018-12-27T20:31:08.276Z,2.10
2018-12-27T20:33:39.882Z,2.10
2018-12-27T20:36:30.056Z,1.90
2018-12-27T20:39:12.641Z,2.00
2018-12-27T20:41:43.211Z,1.70
2018-12-27T20:44:32.703Z,1.60
2018-12-27T20:47:15.385Z,1.80
2018-12-27T20:49:46.517Z,1.80
2018-12-27T20:52:28.700Z,1.70
2018-12-27T20:55:10.651Z,1.70
2018-12-27T20:57:56.833Z,1.60
2018-12-27T21:00:39.313Z,1.80
2018-12-27T21:03:23.039Z,1.70
2018-12-27T21:05:53.331Z,1.60
2018-12-27T21:08:35.695Z,1.70
2018-12-27T21:11:17.660Z,1.60
2018-12-27T21:14:00.143Z,1.70
2018-12-27T21:16:41.761Z,1.60
2018-12-27T21:19:36.237Z,1.70
2018-12-27T21:25:20.237Z,1.50
2018-12-27T21:28:02.505Z,1.60
2018-12-27T21:30:44.360Z,1.70
2018-12-27T21:33:36.713Z,2.10
2018-12-27T21:36:18.619Z,2.40
2018-12-27T21:39:00.596Z,2.60
2018-12-27T21:41:43.140Z,2.80
2018-12-27T21:44:25.729Z,2.80
2018-12-27T21:47:07.811Z,2.80
2018-12-27T21:49:49.768Z,2.60
2018-12-27T21:52:32.125Z,2.80
2018-12-27T21:55:14.281Z,2.60
